Terminal Aerodrome Forecast
Issued by NWS

Home | Current Version | Previous Version | Text Only | Print | Product List | Glossary On
Versions: 1 2 3 4 5 6 7 8 9 10 11 12 13 14 15 16 17 18 19
507
FTUS43 KGRR 260100 AAA
TAFMKG
TAF AMD
KMKG 260100Z 2601/2624 08012G20KT 5SM -RA BR OVC009
     FM260415 10011KT 2SM -RA BR OVC007
     FM261100 12007KT 1SM -SHRA BR OVC005
     FM261400 13011KT 2SM -RA BR OVC005
     FM262000 18006KT 1SM -RA BR OVC005=

USA.gov is the U.S. government's official web portal to all federal, state and local government web resources and services.